sensor_id;sensor_type;location;lat;lon;timestamp;temperature;humidity
43346;DHT22;28937;51.160;4.146;2023-08-21T00:00:14;23.30;98.30
43346;DHT22;28937;51.160;4.146;2023-08-21T00:02:40;23.30;98.20
43346;DHT22;28937;51.160;4.146;2023-08-21T00:05:06;23.30;98.10
43346;DHT22;28937;51.160;4.146;2023-08-21T00:07:31;23.30;98.00
43346;DHT22;28937;51.160;4.146;2023-08-21T00:09:57;23.30;98.10
43346;DHT22;28937;51.160;4.146;2023-08-21T00:12:23;23.30;98.10
43346;DHT22;28937;51.160;4.146;2023-08-21T00:14:48;23.30;98.30
43346;DHT22;28937;51.160;4.146;2023-08-21T00:17:14;23.30;98.20
43346;DHT22;28937;51.160;4.146;2023-08-21T00:19:39;23.30;98.20
43346;DHT22;28937;51.160;4.146;2023-08-21T00:22:05;23.20;98.20
43346;DHT22;28937;51.160;4.146;2023-08-21T00:24:30;23.20;98.40
43346;DHT22;28937;51.160;4.146;2023-08-21T00:26:56;23.20;98.40
43346;DHT22;28937;51.160;4.146;2023-08-21T00:29:22;23.20;98.50
43346;DHT22;28937;51.160;4.146;2023-08-21T00:31:47;23.20;98.50
43346;DHT22;28937;51.160;4.146;2023-08-21T00:34:13;23.20;98.60
43346;DHT22;28937;51.160;4.146;2023-08-21T00:36:38;23.20;98.70
43346;DHT22;28937;51.160;4.146;2023-08-21T00:39:04;23.10;98.70
43346;DHT22;28937;51.160;4.146;2023-08-21T00:41:30;23.20;98.80
43346;DHT22;28937;51.160;4.146;2023-08-21T00:43:56;23.10;98.80
43346;DHT22;28937;51.160;4.146;2023-08-21T00:46:22;23.10;98.90
43346;DHT22;28937;51.160;4.146;2023-08-21T00:48:47;23.10;98.90
43346;DHT22;28937;51.160;4.146;2023-08-21T00:51:16;23.10;98.90
43346;DHT22;28937;51.160;4.146;2023-08-21T00:53:42;23.10;99.00
43346;DHT22;28937;51.160;4.146;2023-08-21T00:56:09;23.00;99.10
43346;DHT22;28937;51.160;4.146;2023-08-21T00:58:34;23.00;99.10
43346;DHT22;28937;51.160;4.146;2023-08-21T01:01:00;23.00;99.10
43346;DHT22;28937;51.160;4.146;2023-08-21T01:03:26;23.00;99.20
43346;DHT22;28937;51.160;4.146;2023-08-21T01:05:52;23.00;99.30
43346;DHT22;28937;51.160;4.146;2023-08-21T01:14:14;22.90;99.40
43346;DHT22;28937;51.160;4.146;2023-08-21T01:16:20;22.90;99.50
43346;DHT22;28937;51.160;4.146;2023-08-21T01:18:47;22.90;99.40
43346;DHT22;28937;51.160;4.146;2023-08-21T01:21:14;22.90;99.30
43346;DHT22;28937;51.160;4.146;2023-08-21T01:23:41;22.90;99.20
43346;DHT22;28937;51.160;4.146;2023-08-21T01:26:09;22.90;99.20
43346;DHT22;28937;51.160;4.146;2023-08-21T01:28:35;22.90;99.20
43346;DHT22;28937;51.160;4.146;2023-08-21T01:31:15;22.90;99.00
43346;DHT22;28937;51.160;4.146;2023-08-21T01:33:45;22.90;99.10
43346;DHT22;28937;51.160;4.146;2023-08-21T01:36:14;22.90;99.20
43346;DHT22;28937;51.160;4.146;2023-08-21T01:38:40;22.80;99.20
43346;DHT22;28937;51.160;4.146;2023-08-21T01:41:06;22.80;99.30
43346;DHT22;28937;51.160;4.146;2023-08-21T01:43:32;22.80;99.30
43346;DHT22;28937;51.160;4.146;2023-08-21T01:45:58;22.80;99.30
43346;DHT22;28937;51.160;4.146;2023-08-21T01:48:23;22.80;99.70
43346;DHT22;28937;51.160;4.146;2023-08-21T01:50:49;22.80;99.50
43346;DHT22;28937;51.160;4.146;2023-08-21T01:53:15;22.80;99.50
43346;DHT22;28937;51.160;4.146;2023-08-21T01:55:40;22.80;99.50
43346;DHT22;28937;51.160;4.146;2023-08-21T01:58:06;22.80;99.50
43346;DHT22;28937;51.160;4.146;2023-08-21T02:00:31;22.70;99.40
43346;DHT22;28937;51.160;4.146;2023-08-21T02:02:57;22.70;99.40
43346;DHT22;28937;51.160;4.146;2023-08-21T02:05:22;22.70;99.30
43346;DHT22;28937;51.160;4.146;2023-08-21T02:07:48;22.70;99.30
43346;DHT22;28937;51.160;4.146;2023-08-21T02:10:14;22.70;99.20
43346;DHT22;28937;51.160;4.146;2023-08-21T02:12:39;22.70;99.30
43346;DHT22;28937;51.160;4.146;2023-08-21T02:15:05;22.60;99.30
43346;DHT22;28937;51.160;4.146;2023-08-21T02:17:31;22.60;99.20
43346;DHT22;28937;51.160;4.146;2023-08-21T02:19:57;22.60;99.20
43346;DHT22;28937;51.160;4.146;2023-08-21T02:22:23;22.60;99.20
43346;DHT22;28937;51.160;4.146;2023-08-21T02:24:49;22.60;99.30
43346;DHT22;28937;51.160;4.146;2023-08-21T02:27:14;22.60;99.30
43346;DHT22;28937;51.160;4.146;2023-08-21T02:29:40;22.60;99.40
43346;DHT22;28937;51.160;4.146;2023-08-21T02:32:05;22.50;99.40
43346;DHT22;28937;51.160;4.146;2023-08-21T02:34:31;22.50;99.40
43346;DHT22;28937;51.160;4.146;2023-08-21T02:36:57;22.50;99.40
43346;DHT22;28937;51.160;4.146;2023-08-21T02:39:23;22.50;99.50
43346;DHT22;28937;51.160;4.146;2023-08-21T02:41:49;22.50;99.40
43346;DHT22;28937;51.160;4.146;2023-08-21T02:44:15;22.50;99.40
43346;DHT22;28937;51.160;4.146;2023-08-21T02:46:40;22.50;99.30
43346;DHT22;28937;51.160;4.146;2023-08-21T02:49:06;22.40;99.30
43346;DHT22;28937;51.160;4.146;2023-08-21T02:51:31;22.40;99.40
43346;DHT22;28937;51.160;4.146;2023-08-21T02:53:57;22.40;99.40
43346;DHT22;28937;51.160;4.146;2023-08-21T02:56:23;22.40;99.50
43346;DHT22;28937;51.160;4.146;2023-08-21T02:58:48;22.40;99.40
43346;DHT22;28937;51.160;4.146;2023-08-21T03:01:14;22.40;99.50
43346;DHT22;28937;51.160;4.146;2023-08-21T03:03:39;22.40;99.50
43346;DHT22;28937;51.160;4.146;2023-08-21T03:06:05;22.40;99.60
43346;DHT22;28937;51.160;4.146;2023-08-21T03:08:31;22.30;99.50
43346;DHT22;28937;51.160;4.146;2023-08-21T03:10:56;22.30;99.50
43346;DHT22;28937;51.160;4.146;2023-08-21T03:13:22;22.30;99.60
43346;DHT22;28937;51.160;4.146;2023-08-21T03:15:47;22.30;99.60
43346;DHT22;28937;51.160;4.146;2023-08-21T03:18:13;22.30;99.60
43346;DHT22;28937;51.160;4.146;2023-08-21T03:20:44;22.30;99.60
43346;DHT22;28937;51.160;4.146;2023-08-21T03:23:11;22.20;99.60
43346;DHT22;28937;51.160;4.146;2023-08-21T03:25:36;22.20;99.60
43346;DHT22;28937;51.160;4.146;2023-08-21T03:28:02;22.20;99.60
43346;DHT22;28937;51.160;4.146;2023-08-21T03:30:28;22.20;99.60
43346;DHT22;28937;51.160;4.146;2023-08-21T03:32:53;22.20;99.60
43346;DHT22;28937;51.160;4.146;2023-08-21T03:35:19;22.10;99.60
43346;DHT22;28937;51.160;4.146;2023-08-21T03:37:44;22.10;99.50
43346;DHT22;28937;51.160;4.146;2023-08-21T03:40:10;22.10;99.50
43346;DHT22;28937;51.160;4.146;2023-08-21T03:42:36;22.10;99.30
43346;DHT22;28937;51.160;4.146;2023-08-21T03:45:02;22.10;99.20
43346;DHT22;28937;51.160;4.146;2023-08-21T03:47:30;22.10;99.20
43346;DHT22;28937;51.160;4.146;2023-08-21T03:49:56;22.10;99.20
43346;DHT22;28937;51.160;4.146;2023-08-21T03:52:21;22.00;99.10
43346;DHT22;28937;51.160;4.146;2023-08-21T03:54:47;22.00;99.10
43346;DHT22;28937;51.160;4.146;2023-08-21T03:57:12;22.00;99.20
43346;DHT22;28937;51.160;4.146;2023-08-21T03:59:38;22.00;99.20
43346;DHT22;28937;51.160;4.146;2023-08-21T04:02:04;22.00;99.20
43346;DHT22;28937;51.160;4.146;2023-08-21T04:04:29;22.00;99.30
43346;DHT22;28937;51.160;4.146;2023-08-21T04:06:55;22.00;99.20
43346;DHT22;28937;51.160;4.146;2023-08-21T04:09:20;21.90;99.20
43346;DHT22;28937;51.160;4.146;2023-08-21T04:11:46;21.90;99.20
43346;DHT22;28937;51.160;4.146;2023-08-21T04:14:12;21.90;99.20
43346;DHT22;28937;51.160;4.146;2023-08-21T04:16:37;21.90;99.20
43346;DHT22;28937;51.160;4.146;2023-08-21T04:19:03;21.90;99.20
43346;DHT22;28937;51.160;4.146;2023-08-21T04:21:29;21.90;99.30
43346;DHT22;28937;51.160;4.146;2023-08-21T04:23:54;21.90;99.30
43346;DHT22;28937;51.160;4.146;2023-08-21T04:26:20;21.80;99.20
43346;DHT22;28937;51.160;4.146;2023-08-21T04:28:46;21.80;99.30
43346;DHT22;28937;51.160;4.146;2023-08-21T04:31:11;21.80;99.30
43346;DHT22;28937;51.160;4.146;2023-08-21T04:33:37;21.80;99.30
43346;DHT22;28937;51.160;4.146;2023-08-21T04:36:03;21.80;99.30
43346;DHT22;28937;51.160;4.146;2023-08-21T04:38:28;21.70;99.20
43346;DHT22;28937;51.160;4.146;2023-08-21T04:40:54;21.80;99.30
43346;DHT22;28937;51.160;4.146;2023-08-21T04:43:19;21.80;99.30
43346;DHT22;28937;51.160;4.146;2023-08-21T04:45:49;21.70;99.30
43346;DHT22;28937;51.160;4.146;2023-08-21T04:48:21;21.70;99.30
43346;DHT22;28937;51.160;4.146;2023-08-21T04:50:47;21.70;99.30
43346;DHT22;28937;51.160;4.146;2023-08-21T04:53:13;21.70;99.40
43346;DHT22;28937;51.160;4.146;2023-08-21T04:55:39;21.70;99.40
43346;DHT22;28937;51.160;4.146;2023-08-21T04:58:06;21.70;99.30
43346;DHT22;28937;51.160;4.146;2023-08-21T05:00:32;21.70;99.30
43346;DHT22;28937;51.160;4.146;2023-08-21T05:02:58;21.70;99.30
43346;DHT22;28937;51.160;4.146;2023-08-21T05:05:23;21.60;99.30
43346;DHT22;28937;51.160;4.146;2023-08-21T05:07:49;21.60;99.70
43346;DHT22;28937;51.160;4.146;2023-08-21T05:10:15;21.60;99.40
43346;DHT22;28937;51.160;4.146;2023-08-21T05:12:40;21.50;99.40
43346;DHT22;28937;51.160;4.146;2023-08-21T05:15:06;21.50;99.40
43346;DHT22;28937;51.160;4.146;2023-08-21T05:17:32;21.60;99.50
43346;DHT22;28937;51.160;4.146;2023-08-21T05:19:57;21.50;99.50
43346;DHT22;28937;51.160;4.146;2023-08-21T05:22:23;21.50;99.60
43346;DHT22;28937;51.160;4.146;2023-08-21T05:24:49;21.50;99.70
43346;DHT22;28937;51.160;4.146;2023-08-21T05:27:14;21.50;99.70
43346;DHT22;28937;51.160;4.146;2023-08-21T05:29:40;21.40;99.80
43346;DHT22;28937;51.160;4.146;2023-08-21T05:32:05;21.40;99.80
43346;DHT22;28937;51.160;4.146;2023-08-21T05:34:32;21.40;99.80
43346;DHT22;28937;51.160;4.146;2023-08-21T05:36:57;21.40;99.90
43346;DHT22;28937;51.160;4.146;2023-08-21T05:39:23;21.40;99.90
43346;DHT22;28937;51.160;4.146;2023-08-21T05:41:48;21.40;99.90
43346;DHT22;28937;51.160;4.146;2023-08-21T05:44:14;21.40;99.90
43346;DHT22;28937;51.160;4.146;2023-08-21T05:46:40;21.40;99.90
43346;DHT22;28937;51.160;4.146;2023-08-21T05:49:05;21.40;99.90
43346;DHT22;28937;51.160;4.146;2023-08-21T05:51:31;21.50;99.90
43346;DHT22;28937;51.160;4.146;2023-08-21T05:53:56;21.50;99.90
43346;DHT22;28937;51.160;4.146;2023-08-21T05:56:22;21.50;99.90
43346;DHT22;28937;51.160;4.146;2023-08-21T05:58:49;21.60;99.90
43346;DHT22;28937;51.160;4.146;2023-08-21T06:01:14;21.60;99.90
43346;DHT22;28937;51.160;4.146;2023-08-21T06:03:40;21.60;99.90
43346;DHT22;28937;51.160;4.146;2023-08-21T06:06:05;21.60;99.90
43346;DHT22;28937;51.160;4.146;2023-08-21T06:08:31;21.60;99.90
43346;DHT22;28937;51.160;4.146;2023-08-21T06:10:57;21.60;99.90
43346;DHT22;28937;51.160;4.146;2023-08-21T06:13:22;21.70;99.90
43346;DHT22;28937;51.160;4.146;2023-08-21T06:15:48;21.70;99.90
43346;DHT22;28937;51.160;4.146;2023-08-21T06:18:14;21.70;99.90
43346;DHT22;28937;51.160;4.146;2023-08-21T06:20:43;21.70;99.90
43346;DHT22;28937;51.160;4.146;2023-08-21T06:23:10;21.80;99.90
43346;DHT22;28937;51.160;4.146;2023-08-21T06:25:36;21.80;99.90
43346;DHT22;28937;51.160;4.146;2023-08-21T06:28:01;21.80;99.90
43346;DHT22;28937;51.160;4.146;2023-08-21T06:30:27;21.80;99.90
43346;DHT22;28937;51.160;4.146;2023-08-21T06:32:53;21.80;99.90
43346;DHT22;28937;51.160;4.146;2023-08-21T06:35:19;21.90;99.90
43346;DHT22;28937;51.160;4.146;2023-08-21T06:37:45;21.90;99.90
43346;DHT22;28937;51.160;4.146;2023-08-21T06:40:10;21.90;99.90
43346;DHT22;28937;51.160;4.146;2023-08-21T06:42:36;21.90;99.90
43346;DHT22;28937;51.160;4.146;2023-08-21T06:45:04;21.90;99.90
43346;DHT22;28937;51.160;4.146;2023-08-21T06:47:30;22.00;99.90
43346;DHT22;28937;51.160;4.146;2023-08-21T06:49:55;22.00;99.90
43346;DHT22;28937;51.160;4.146;2023-08-21T06:52:21;22.10;99.90
43346;DHT22;28937;51.160;4.146;2023-08-21T06:54:46;22.10;99.90
43346;DHT22;28937;51.160;4.146;2023-08-21T06:57:12;22.10;99.90
43346;DHT22;28937;51.160;4.146;2023-08-21T06:59:37;22.10;99.90
43346;DHT22;28937;51.160;4.146;2023-08-21T07:02:03;22.10;99.90
43346;DHT22;28937;51.160;4.146;2023-08-21T07:04:29;22.10;99.90
43346;DHT22;28937;51.160;4.146;2023-08-21T07:06:55;22.20;99.90
43346;DHT22;28937;51.160;4.146;2023-08-21T07:09:20;22.20;99.90
43346;DHT22;28937;51.160;4.146;2023-08-21T07:11:46;22.20;99.90
43346;DHT22;28937;51.160;4.146;2023-08-21T07:14:11;22.20;99.90
43346;DHT22;28937;51.160;4.146;2023-08-21T07:16:39;22.20;99.90
43346;DHT22;28937;51.160;4.146;2023-08-21T07:19:05;22.20;99.90
43346;DHT22;28937;51.160;4.146;2023-08-21T07:21:30;22.30;99.90
43346;DHT22;28937;51.160;4.146;2023-08-21T07:23:56;22.30;99.90
43346;DHT22;28937;51.160;4.146;2023-08-21T07:26:22;22.30;99.90
43346;DHT22;28937;51.160;4.146;2023-08-21T07:28:47;22.30;99.90
43346;DHT22;28937;51.160;4.146;2023-08-21T07:31:13;22.40;99.90
43346;DHT22;28937;51.160;4.146;2023-08-21T07:33:39;22.40;99.90
43346;DHT22;28937;51.160;4.146;2023-08-21T07:36:05;22.40;99.90
43346;DHT22;28937;51.160;4.146;2023-08-21T07:38:32;22.50;99.90
43346;DHT22;28937;51.160;4.146;2023-08-21T07:41:08;22.50;99.90
43346;DHT22;28937;51.160;4.146;2023-08-21T07:43:36;22.60;99.90
43346;DHT22;28937;51.160;4.146;2023-08-21T07:46:06;22.60;99.90
43346;DHT22;28937;51.160;4.146;2023-08-21T07:48:32;22.60;99.90
43346;DHT22;28937;51.160;4.146;2023-08-21T07:50:58;22.70;99.90
43346;DHT22;28937;51.160;4.146;2023-08-21T07:53:24;22.70;99.90
43346;DHT22;28937;51.160;4.146;2023-08-21T07:55:50;22.70;99.90
43346;DHT22;28937;51.160;4.146;2023-08-21T07:58:16;22.80;99.90
43346;DHT22;28937;51.160;4.146;2023-08-21T08:00:42;22.80;99.90
43346;DHT22;28937;51.160;4.146;2023-08-21T08:03:10;22.80;99.90
43346;DHT22;28937;51.160;4.146;2023-08-21T08:05:37;22.90;99.90
43346;DHT22;28937;51.160;4.146;2023-08-21T08:08:03;22.90;99.90
43346;DHT22;28937;51.160;4.146;2023-08-21T08:10:29;23.00;99.90
43346;DHT22;28937;51.160;4.146;2023-08-21T08:12:55;23.00;99.90
43346;DHT22;28937;51.160;4.146;2023-08-21T08:15:22;23.00;99.90
43346;DHT22;28937;51.160;4.146;2023-08-21T08:17:47;23.10;99.90
43346;DHT22;28937;51.160;4.146;2023-08-21T08:20:17;23.10;99.90
43346;DHT22;28937;51.160;4.146;2023-08-21T08:22:43;23.20;99.90
43346;DHT22;28937;51.160;4.146;2023-08-21T08:25:08;23.20;99.90
43346;DHT22;28937;51.160;4.146;2023-08-21T08:27:34;23.20;99.90
43346;DHT22;28937;51.160;4.146;2023-08-21T08:30:00;23.30;99.90
43346;DHT22;28937;51.160;4.146;2023-08-21T08:32:26;23.30;99.90
43346;DHT22;28937;51.160;4.146;2023-08-21T08:34:52;23.40;99.90
43346;DHT22;28937;51.160;4.146;2023-08-21T08:37:19;23.40;99.90
43346;DHT22;28937;51.160;4.146;2023-08-21T08:39:46;23.40;99.90
43346;DHT22;28937;51.160;4.146;2023-08-21T08:42:14;23.40;99.90
43346;DHT22;28937;51.160;4.146;2023-08-21T08:44:39;23.50;99.90
43346;DHT22;28937;51.160;4.146;2023-08-21T08:47:07;23.50;99.90
43346;DHT22;28937;51.160;4.146;2023-08-21T08:49:33;23.50;99.90
43346;DHT22;28937;51.160;4.146;2023-08-21T08:52:00;23.50;99.90
43346;DHT22;28937;51.160;4.146;2023-08-21T08:54:26;23.60;99.90
43346;DHT22;28937;51.160;4.146;2023-08-21T08:56:53;23.60;99.90
43346;DHT22;28937;51.160;4.146;2023-08-21T08:59:18;23.70;99.90
43346;DHT22;28937;51.160;4.146;2023-08-21T09:01:44;23.70;99.90
43346;DHT22;28937;51.160;4.146;2023-08-21T09:04:10;23.70;99.90
43346;DHT22;28937;51.160;4.146;2023-08-21T09:06:36;23.70;99.90
43346;DHT22;28937;51.160;4.146;2023-08-21T09:09:01;23.80;99.90
43346;DHT22;28937;51.160;4.146;2023-08-21T09:11:27;23.80;99.90
43346;DHT22;28937;51.160;4.146;2023-08-21T09:13:54;23.80;99.90
43346;DHT22;28937;51.160;4.146;2023-08-21T09:16:21;23.80;99.90
43346;DHT22;28937;51.160;4.146;2023-08-21T09:18:56;23.80;99.90
43346;DHT22;28937;51.160;4.146;2023-08-21T09:21:23;23.80;99.90
43346;DHT22;28937;51.160;4.146;2023-08-21T09:23:56;23.90;99.90
43346;DHT22;28937;51.160;4.146;2023-08-21T09:26:22;23.90;99.90
43346;DHT22;28937;51.160;4.146;2023-08-21T09:28:49;23.90;99.90
43346;DHT22;28937;51.160;4.146;2023-08-21T09:31:15;23.90;99.90
43346;DHT22;28937;51.160;4.146;2023-08-21T09:33:42;23.90;99.90
43346;DHT22;28937;51.160;4.146;2023-08-21T09:36:09;24.00;99.90
43346;DHT22;28937;51.160;4.146;2023-08-21T09:38:38;24.00;99.90
43346;DHT22;28937;51.160;4.146;2023-08-21T09:41:06;24.00;99.90
43346;DHT22;28937;51.160;4.146;2023-08-21T09:43:32;24.00;99.80
43346;DHT22;28937;51.160;4.146;2023-08-21T09:45:58;24.10;99.50
43346;DHT22;28937;51.160;4.146;2023-08-21T09:48:27;24.10;98.60
43346;DHT22;28937;51.160;4.146;2023-08-21T09:50:53;24.10;98.90
43346;DHT22;28937;51.160;4.146;2023-08-21T09:53:23;24.10;99.20
43346;DHT22;28937;51.160;4.146;2023-08-21T09:55:55;24.10;98.20
43346;DHT22;28937;51.160;4.146;2023-08-21T09:58:21;24.20;98.40
43346;DHT22;28937;51.160;4.146;2023-08-21T10:00:49;24.20;98.30
43346;DHT22;28937;51.160;4.146;2023-08-21T10:03:19;24.20;98.40
43346;DHT22;28937;51.160;4.146;2023-08-21T10:05:47;24.20;97.20
43346;DHT22;28937;51.160;4.146;2023-08-21T10:08:15;24.20;97.90
43346;DHT22;28937;51.160;4.146;2023-08-21T10:10:41;24.20;98.10
43346;DHT22;28937;51.160;4.146;2023-08-21T10:13:07;24.30;98.00
43346;DHT22;28937;51.160;4.146;2023-08-21T10:15:34;24.20;98.00
43346;DHT22;28937;51.160;4.146;2023-08-21T10:18:24;24.30;98.00
43346;DHT22;28937;51.160;4.146;2023-08-21T10:20:51;24.30;98.00
43346;DHT22;28937;51.160;4.146;2023-08-21T10:23:28;24.30;98.00
43346;DHT22;28937;51.160;4.146;2023-08-21T10:25:57;24.30;97.90
43346;DHT22;28937;51.160;4.146;2023-08-21T10:28:23;24.30;97.90
43346;DHT22;28937;51.160;4.146;2023-08-21T10:30:49;24.30;97.80
43346;DHT22;28937;51.160;4.146;2023-08-21T10:33:15;24.30;97.60
43346;DHT22;28937;51.160;4.146;2023-08-21T10:35:40;24.40;97.60
43346;DHT22;28937;51.160;4.146;2023-08-21T10:38:15;24.40;97.10
43346;DHT22;28937;51.160;4.146;2023-08-21T10:41:04;24.40;97.10
43346;DHT22;28937;51.160;4.146;2023-08-21T10:43:39;24.40;97.20
43346;DHT22;28937;51.160;4.146;2023-08-21T10:46:06;24.40;97.50
43346;DHT22;28937;51.160;4.146;2023-08-21T10:48:32;24.40;97.60
43346;DHT22;28937;51.160;4.146;2023-08-21T10:51:02;24.40;97.60
43346;DHT22;28937;51.160;4.146;2023-08-21T10:53:29;24.40;97.60
43346;DHT22;28937;51.160;4.146;2023-08-21T10:55:56;24.40;97.60
43346;DHT22;28937;51.160;4.146;2023-08-21T10:58:22;24.40;97.60
43346;DHT22;28937;51.160;4.146;2023-08-21T11:01:00;24.40;97.50
43346;DHT22;28937;51.160;4.146;2023-08-21T11:03:26;24.50;97.40
43346;DHT22;28937;51.160;4.146;2023-08-21T11:06:06;24.50;97.30
43346;DHT22;28937;51.160;4.146;2023-08-21T11:08:33;24.50;97.20
43346;DHT22;28937;51.160;4.146;2023-08-21T11:11:05;24.50;97.00
43346;DHT22;28937;51.160;4.146;2023-08-21T11:13:31;24.50;97.20
43346;DHT22;28937;51.160;4.146;2023-08-21T11:16:05;24.60;97.20
43346;DHT22;28937;51.160;4.146;2023-08-21T11:18:32;24.60;97.10
43346;DHT22;28937;51.160;4.146;2023-08-21T11:21:08;24.50;97.10
43346;DHT22;28937;51.160;4.146;2023-08-21T11:23:35;24.60;97.10
43346;DHT22;28937;51.160;4.146;2023-08-21T11:26:02;24.60;97.10
43346;DHT22;28937;51.160;4.146;2023-08-21T11:28:29;24.60;97.10
43346;DHT22;28937;51.160;4.146;2023-08-21T11:30:55;24.60;97.00
43346;DHT22;28937;51.160;4.146;2023-08-21T11:33:21;24.60;96.50
43346;DHT22;28937;51.160;4.146;2023-08-21T11:35:47;24.60;96.50
43346;DHT22;28937;51.160;4.146;2023-08-21T11:38:21;24.60;96.50
43346;DHT22;28937;51.160;4.146;2023-08-21T11:40:58;24.70;95.90
43346;DHT22;28937;51.160;4.146;2023-08-21T11:43:40;24.60;96.30
43346;DHT22;28937;51.160;4.146;2023-08-21T11:46:10;24.60;97.00
43346;DHT22;28937;51.160;4.146;2023-08-21T11:48:40;24.70;96.10
43346;DHT22;28937;51.160;4.146;2023-08-21T11:51:07;24.60;95.50
43346;DHT22;28937;51.160;4.146;2023-08-21T11:56:00;24.80;96.70
43346;DHT22;28937;51.160;4.146;2023-08-21T11:58:29;24.70;96.70
43346;DHT22;28937;51.160;4.146;2023-08-21T12:01:02;24.70;96.60
43346;DHT22;28937;51.160;4.146;2023-08-21T12:03:41;24.80;96.70
43346;DHT22;28937;51.160;4.146;2023-08-21T12:06:07;24.80;96.60
43346;DHT22;28937;51.160;4.146;2023-08-21T12:08:34;24.80;96.60
43346;DHT22;28937;51.160;4.146;2023-08-21T12:11:00;24.80;96.20
43346;DHT22;28937;51.160;4.146;2023-08-21T12:13:26;24.80;95.70
43346;DHT22;28937;51.160;4.146;2023-08-21T12:15:51;24.80;96.20
43346;DHT22;28937;51.160;4.146;2023-08-21T12:18:17;24.80;95.50
43346;DHT22;28937;51.160;4.146;2023-08-21T12:20:42;24.80;94.50
43346;DHT22;28937;51.160;4.146;2023-08-21T12:23:08;24.90;95.30
43346;DHT22;28937;51.160;4.146;2023-08-21T12:25:33;24.90;96.10
43346;DHT22;28937;51.160;4.146;2023-08-21T12:27:59;24.90;96.40
43346;DHT22;28937;51.160;4.146;2023-08-21T12:30:25;24.90;96.40
43346;DHT22;28937;51.160;4.146;2023-08-21T12:32:51;24.90;96.50
43346;DHT22;28937;51.160;4.146;2023-08-21T12:35:16;24.90;96.50
43346;DHT22;28937;51.160;4.146;2023-08-21T12:37:42;24.90;96.50
43346;DHT22;28937;51.160;4.146;2023-08-21T12:40:07;24.90;96.40
43346;DHT22;28937;51.160;4.146;2023-08-21T12:42:34;24.90;96.30
43346;DHT22;28937;51.160;4.146;2023-08-21T12:44:59;25.00;96.40
43346;DHT22;28937;51.160;4.146;2023-08-21T12:47:25;25.00;96.20
43346;DHT22;28937;51.160;4.146;2023-08-21T12:49:50;25.00;96.10
43346;DHT22;28937;51.160;4.146;2023-08-21T12:52:16;25.00;96.10
43346;DHT22;28937;51.160;4.146;2023-08-21T12:54:42;25.00;96.10
43346;DHT22;28937;51.160;4.146;2023-08-21T12:57:09;25.00;96.10
43346;DHT22;28937;51.160;4.146;2023-08-21T12:59:34;25.00;95.70
43346;DHT22;28937;51.160;4.146;2023-08-21T13:02:00;25.00;95.60
43346;DHT22;28937;51.160;4.146;2023-08-21T13:04:26;25.00;95.50
43346;DHT22;28937;51.160;4.146;2023-08-21T13:06:52;25.10;95.80
43346;DHT22;28937;51.160;4.146;2023-08-21T13:09:18;25.10;95.30
43346;DHT22;28937;51.160;4.146;2023-08-21T13:11:43;25.10;93.80
43346;DHT22;28937;51.160;4.146;2023-08-21T13:14:09;25.10;94.30
43346;DHT22;28937;51.160;4.146;2023-08-21T13:16:34;25.10;94.70
43346;DHT22;28937;51.160;4.146;2023-08-21T13:19:00;25.10;93.30
43346;DHT22;28937;51.160;4.146;2023-08-21T13:21:25;25.10;92.40
43346;DHT22;28937;51.160;4.146;2023-08-21T13:23:51;25.20;93.90
43346;DHT22;28937;51.160;4.146;2023-08-21T13:26:17;25.20;94.60
43346;DHT22;28937;51.160;4.146;2023-08-21T13:28:42;25.30;94.50
43346;DHT22;28937;51.160;4.146;2023-08-21T13:31:08;25.30;93.90
43346;DHT22;28937;51.160;4.146;2023-08-21T13:33:44;25.30;94.00
43346;DHT22;28937;51.160;4.146;2023-08-21T13:36:10;25.30;94.10
43346;DHT22;28937;51.160;4.146;2023-08-21T13:38:36;25.30;94.20
43346;DHT22;28937;51.160;4.146;2023-08-21T13:41:01;25.30;94.20
43346;DHT22;28937;51.160;4.146;2023-08-21T13:43:27;25.30;94.10
43346;DHT22;28937;51.160;4.146;2023-08-21T13:45:53;25.30;93.70
43346;DHT22;28937;51.160;4.146;2023-08-21T13:48:18;25.30;93.80
43346;DHT22;28937;51.160;4.146;2023-08-21T13:50:44;25.30;93.90
43346;DHT22;28937;51.160;4.146;2023-08-21T13:53:10;25.30;92.90
43346;DHT22;28937;51.160;4.146;2023-08-21T13:55:35;25.30;92.30
43346;DHT22;28937;51.160;4.146;2023-08-21T13:58:01;25.30;92.80
43346;DHT22;28937;51.160;4.146;2023-08-21T14:00:26;25.40;93.90
43346;DHT22;28937;51.160;4.146;2023-08-21T14:02:52;25.30;93.80
43346;DHT22;28937;51.160;4.146;2023-08-21T14:05:17;25.40;93.40
43346;DHT22;28937;51.160;4.146;2023-08-21T14:07:43;25.40;94.10
43346;DHT22;28937;51.160;4.146;2023-08-21T14:10:09;25.40;94.10
43346;DHT22;28937;51.160;4.146;2023-08-21T14:12:35;25.50;94.00
43346;DHT22;28937;51.160;4.146;2023-08-21T14:15:00;25.50;94.00
43346;DHT22;28937;51.160;4.146;2023-08-21T14:17:26;25.50;94.10
43346;DHT22;28937;51.160;4.146;2023-08-21T14:19:52;25.40;94.10
43346;DHT22;28937;51.160;4.146;2023-08-21T14:22:18;25.50;94.10
43346;DHT22;28937;51.160;4.146;2023-08-21T14:24:44;25.50;94.00
43346;DHT22;28937;51.160;4.146;2023-08-21T14:27:10;25.50;94.20
43346;DHT22;28937;51.160;4.146;2023-08-21T14:29:35;25.50;94.40
43346;DHT22;28937;51.160;4.146;2023-08-21T14:32:01;25.50;94.40
43346;DHT22;28937;51.160;4.146;2023-08-21T14:34:27;25.50;94.40
43346;DHT22;28937;51.160;4.146;2023-08-21T14:36:53;25.50;94.60
43346;DHT22;28937;51.160;4.146;2023-08-21T14:39:25;25.50;94.70
43346;DHT22;28937;51.160;4.146;2023-08-21T14:41:58;25.50;94.70
43346;DHT22;28937;51.160;4.146;2023-08-21T14:44:24;25.50;94.80
43346;DHT22;28937;51.160;4.146;2023-08-21T14:46:52;25.50;94.90
43346;DHT22;28937;51.160;4.146;2023-08-21T14:49:18;25.50;94.90
43346;DHT22;28937;51.160;4.146;2023-08-21T14:51:43;25.50;95.00
43346;DHT22;28937;51.160;4.146;2023-08-21T14:54:09;25.60;95.10
43346;DHT22;28937;51.160;4.146;2023-08-21T14:56:35;25.60;95.20
43346;DHT22;28937;51.160;4.146;2023-08-21T14:59:00;25.60;95.10
43346;DHT22;28937;51.160;4.146;2023-08-21T15:01:26;25.60;94.90
43346;DHT22;28937;51.160;4.146;2023-08-21T15:03:51;25.70;94.60
43346;DHT22;28937;51.160;4.146;2023-08-21T15:06:17;25.70;94.30
43346;DHT22;28937;51.160;4.146;2023-08-21T15:08:42;25.70;94.80
43346;DHT22;28937;51.160;4.146;2023-08-21T15:11:09;25.70;95.10
43346;DHT22;28937;51.160;4.146;2023-08-21T15:13:39;25.70;95.30
43346;DHT22;28937;51.160;4.146;2023-08-21T15:16:05;25.70;95.30
43346;DHT22;28937;51.160;4.146;2023-08-21T15:18:30;25.70;95.30
43346;DHT22;28937;51.160;4.146;2023-08-21T15:20:56;25.70;95.30
43346;DHT22;28937;51.160;4.146;2023-08-21T15:23:22;25.70;95.10
43346;DHT22;28937;51.160;4.146;2023-08-21T15:25:47;25.80;95.20
43346;DHT22;28937;51.160;4.146;2023-08-21T15:28:13;25.80;95.40
43346;DHT22;28937;51.160;4.146;2023-08-21T15:30:39;25.80;95.40
43346;DHT22;28937;51.160;4.146;2023-08-21T15:33:05;25.80;95.40